AAL2972 KMIA-TISX
Flight info
| Callsign | AAL2972 |
|---|---|
| Flight time | 2h 16m |
| Altitude | 37000 |
| Route | KLADA2 BITAC Y290 HAGIT Y421 MEEGL |
| Aircraft | B738/M-SDE2E3FGHIRWXY/LB1 |
Departure
| Time | 2026-04-24 14:32 |
|---|---|
| Airport | Miami International Airport (KMIA) |
Arrival
| Time | 2026-04-24 16:48 |
|---|---|
| Airport | Henry E. Rohlsen Airport (TISX) |
| Time | Latitude | Longitude | Altitude | Speed | Heading |
|---|---|---|---|---|---|
| 2026-04-24 14:12 | 25.79780 | -80.27886 | 14 ft | 0 kts | 177° |
| 2026-04-24 14:22 | 25.79810 | -80.27888 | 14 ft | 4 kts | 177° |
| 2026-04-24 14:23 | 25.79837 | -80.27889 | 14 ft | 4 kts | 177° |
| 2026-04-24 14:23 | 25.79859 | -80.27890 | 14 ft | 4 kts | 192° |
| 2026-04-24 14:23 | 25.79879 | -80.27877 | 14 ft | 4 kts | 248° |
| 2026-04-24 14:23 | 25.79884 | -80.27850 | 14 ft | 4 kts | 267° |
| 2026-04-24 14:24 | 25.79884 | -80.27829 | 14 ft | 0 kts | 267° |
| 2026-04-24 14:25 | 25.79884 | -80.27830 | 14 ft | 1 kts | 267° |
| 2026-04-24 14:26 | 25.79897 | -80.27880 | 16 ft | 11 kts | 313° |
| 2026-04-24 14:26 | 25.79997 | -80.27899 | 14 ft | 17 kts | 347° |
| 2026-04-24 14:26 | 25.80049 | -80.28001 | 13 ft | 17 kts | 268° |
| 2026-04-24 14:26 | 25.80043 | -80.28129 | 13 ft | 16 kts | 266° |
| 2026-04-24 14:27 | 25.80039 | -80.28252 | 14 ft | 16 kts | 267° |
| 2026-04-24 14:27 | 25.80034 | -80.28370 | 14 ft | 15 kts | 268° |
| 2026-04-24 14:27 | 25.80029 | -80.28484 | 14 ft | 14 kts | 267° |
| 2026-04-24 14:27 | 25.80025 | -80.28593 | 15 ft | 14 kts | 267° |
| 2026-04-24 14:28 | 25.80020 | -80.28695 | 15 ft | 14 kts | 268° |
| 2026-04-24 14:28 | 25.80014 | -80.28833 | 15 ft | 20 kts | 267° |
| 2026-04-24 14:28 | 25.80008 | -80.28985 | 16 ft | 19 kts | 268° |
| 2026-04-24 14:28 | 25.80002 | -80.29131 | 15 ft | 19 kts | 268° |
| 2026-04-24 14:29 | 25.79996 | -80.29273 | 15 ft | 18 kts | 267° |
| 2026-04-24 14:29 | 25.79991 | -80.29411 | 14 ft | 17 kts | 267° |
| 2026-04-24 14:29 | 25.79985 | -80.29544 | 13 ft | 18 kts | 267° |
| 2026-04-24 14:29 | 25.79979 | -80.29690 | 13 ft | 19 kts | 267° |
| 2026-04-24 14:30 | 25.79973 | -80.29835 | 13 ft | 19 kts | 267° |
| 2026-04-24 14:30 | 25.79979 | -80.29975 | 13 ft | 18 kts | 286° |
| 2026-04-24 14:30 | 25.80013 | -80.30103 | 13 ft | 14 kts | 292° |
| 2026-04-24 14:30 | 25.80073 | -80.30095 | 13 ft | 12 kts | 85° |
| 2026-04-24 14:31 | 25.80078 | -80.29974 | 12 ft | 33 kts | 87° |
| 2026-04-24 14:31 | 25.80098 | -80.29488 | 13 ft | 92 kts | 87° |
| 2026-04-24 14:31 | 25.80135 | -80.28591 | 15 ft | 139 kts | 87° |
| 2026-04-24 14:31 | 25.80198 | -80.27418 | 276 ft | 154 kts | 87° |
| 2026-04-24 14:32 | 25.80279 | -80.26214 | 820 ft | 163 kts | 90° |
| 2026-04-24 14:32 | 25.80162 | -80.24915 | 1293 ft | 174 kts | 105° |
| 2026-04-24 14:32 | 25.79634 | -80.23641 | 1690 ft | 184 kts | 121° |
| 2026-04-24 14:32 | 25.78992 | -80.22423 | 2183 ft | 189 kts | 119° |
| 2026-04-24 14:33 | 25.78332 | -80.21106 | 2596 ft | 196 kts | 120° |
| 2026-04-24 14:33 | 25.77659 | -80.19784 | 2992 ft | 203 kts | 118° |
| 2026-04-24 14:33 | 25.76969 | -80.18387 | 3354 ft | 211 kts | 118° |
| 2026-04-24 14:33 | 25.76245 | -80.16914 | 3660 ft | 222 kts | 119° |
| 2026-04-24 14:34 | 25.75485 | -80.15384 | 3980 ft | 234 kts | 118° |
| 2026-04-24 14:34 | 25.74680 | -80.13746 | 4274 ft | 249 kts | 118° |
| 2026-04-24 14:34 | 25.73830 | -80.12015 | 4645 ft | 261 kts | 118° |
| 2026-04-24 14:34 | 25.73008 | -80.10205 | 5160 ft | 266 kts | 112° |
| 2026-04-24 14:35 | 25.72350 | -80.08281 | 5683 ft | 273 kts | 110° |
| 2026-04-24 14:35 | 25.71719 | -80.06295 | 6291 ft | 275 kts | 109° |
| 2026-04-24 14:35 | 25.71063 | -80.04258 | 6933 ft | 284 kts | 111° |
| 2026-04-24 14:35 | 25.70395 | -80.02181 | 7730 ft | 286 kts | 110° |
| 2026-04-24 14:36 | 25.69709 | -80.00085 | 8392 ft | 292 kts | 111° |
| 2026-04-24 14:36 | 25.69006 | -79.97960 | 9131 ft | 295 kts | 111° |
| 2026-04-24 14:36 | 25.68299 | -79.95805 | 9836 ft | 300 kts | 111° |
| 2026-04-24 14:36 | 25.67570 | -79.93604 | 10349 ft | 311 kts | 112° |
| 2026-04-24 14:37 | 25.66792 | -79.91266 | 10527 ft | 334 kts | 111° |
| 2026-04-24 14:37 | 25.65983 | -79.88813 | 10993 ft | 343 kts | 111° |
| 2026-04-24 14:37 | 25.65164 | -79.86318 | 11555 ft | 349 kts | 110° |
| 2026-04-24 14:37 | 25.64324 | -79.83786 | 12268 ft | 350 kts | 112° |
| 2026-04-24 14:38 | 25.63471 | -79.81243 | 12938 ft | 354 kts | 111° |
| 2026-04-24 14:38 | 25.62613 | -79.78665 | 13569 ft | 359 kts | 111° |
| 2026-04-24 14:38 | 25.61742 | -79.76044 | 14128 ft | 365 kts | 111° |
| 2026-04-24 14:38 | 25.60857 | -79.73387 | 14723 ft | 369 kts | 112° |
| 2026-04-24 14:39 | 25.59964 | -79.70711 | 15355 ft | 372 kts | 112° |
| 2026-04-24 14:39 | 25.59040 | -79.68020 | 15929 ft | 376 kts | 113° |
| 2026-04-24 14:39 | 25.58063 | -79.65318 | 16485 ft | 380 kts | 114° |
| 2026-04-24 14:39 | 25.57060 | -79.62599 | 17057 ft | 383 kts | 114° |
| 2026-04-24 14:40 | 25.56045 | -79.59856 | 17641 ft | 387 kts | 114° |
| 2026-04-24 14:40 | 25.55021 | -79.57084 | 18224 ft | 391 kts | 114° |
| 2026-04-24 14:40 | 25.53991 | -79.54288 | 18709 ft | 394 kts | 114° |
| 2026-04-24 14:40 | 25.52954 | -79.51459 | 19204 ft | 398 kts | 114° |
| 2026-04-24 14:41 | 25.51908 | -79.48606 | 19720 ft | 401 kts | 114° |
| 2026-04-24 14:41 | 25.50854 | -79.45734 | 20210 ft | 405 kts | 114° |
| 2026-04-24 14:41 | 25.49788 | -79.42832 | 20656 ft | 408 kts | 114° |
| 2026-04-24 14:41 | 25.48712 | -79.39905 | 21102 ft | 413 kts | 114° |
| 2026-04-24 14:42 | 25.47626 | -79.36948 | 21575 ft | 416 kts | 114° |
| 2026-04-24 14:42 | 25.46529 | -79.33966 | 22045 ft | 419 kts | 114° |
| 2026-04-24 14:42 | 25.45427 | -79.30970 | 22491 ft | 423 kts | 114° |
| 2026-04-24 14:42 | 25.44314 | -79.27946 | 22934 ft | 426 kts | 114° |
| 2026-04-24 14:43 | 25.43190 | -79.24894 | 23384 ft | 430 kts | 114° |
| 2026-04-24 14:43 | 25.42058 | -79.21823 | 23772 ft | 433 kts | 114° |
| 2026-04-24 14:43 | 25.40916 | -79.18729 | 24142 ft | 436 kts | 114° |
| 2026-04-24 14:43 | 25.39767 | -79.15617 | 24530 ft | 438 kts | 114° |
| 2026-04-24 14:44 | 25.38613 | -79.12492 | 24909 ft | 440 kts | 114° |
| 2026-04-24 14:44 | 25.37453 | -79.09353 | 25267 ft | 443 kts | 114° |
| 2026-04-24 14:44 | 25.36300 | -79.06237 | 25612 ft | 445 kts | 114° |
| 2026-04-24 14:44 | 25.35108 | -79.03019 | 25972 ft | 447 kts | 115° |
| 2026-04-24 14:45 | 25.33943 | -78.99874 | 26346 ft | 449 kts | 115° |
| 2026-04-24 14:45 | 25.32756 | -78.96674 | 26690 ft | 451 kts | 115° |
| 2026-04-24 14:45 | 25.31545 | -78.93412 | 27007 ft | 454 kts | 115° |
| 2026-04-24 14:45 | 25.30342 | -78.90175 | 27328 ft | 457 kts | 115° |
| 2026-04-24 14:46 | 25.29147 | -78.86962 | 27649 ft | 459 kts | 115° |
| 2026-04-24 14:46 | 25.27930 | -78.83690 | 27963 ft | 462 kts | 115° |
| 2026-04-24 14:46 | 25.26689 | -78.80359 | 28302 ft | 464 kts | 115° |
| 2026-04-24 14:46 | 25.25475 | -78.77103 | 28610 ft | 466 kts | 115° |
| 2026-04-24 14:47 | 25.24238 | -78.73783 | 28914 ft | 468 kts | 115° |
| 2026-04-24 14:47 | 25.22993 | -78.70448 | 29203 ft | 471 kts | 115° |
| 2026-04-24 14:47 | 25.21742 | -78.67099 | 29488 ft | 473 kts | 115° |
| 2026-04-24 14:47 | 25.20487 | -78.63736 | 29803 ft | 474 kts | 115° |
| 2026-04-24 14:48 | 25.19226 | -78.60360 | 30057 ft | 477 kts | 115° |
| 2026-04-24 14:48 | 25.17955 | -78.56973 | 30268 ft | 479 kts | 116° |
| 2026-04-24 14:48 | 25.16628 | -78.53588 | 30489 ft | 481 kts | 117° |
| 2026-04-24 14:48 | 25.15248 | -78.50223 | 30747 ft | 482 kts | 118° |
| 2026-04-24 14:49 | 25.13846 | -78.46865 | 31005 ft | 482 kts | 118° |
| 2026-04-24 14:49 | 25.12439 | -78.43499 | 31235 ft | 484 kts | 118° |
| 2026-04-24 14:49 | 25.11031 | -78.40117 | 31436 ft | 486 kts | 118° |
| 2026-04-24 14:49 | 25.09626 | -78.36725 | 31659 ft | 487 kts | 118° |
| 2026-04-24 14:50 | 25.08216 | -78.33310 | 31862 ft | 489 kts | 118° |
| 2026-04-24 14:50 | 25.06809 | -78.29897 | 32107 ft | 489 kts | 118° |
| 2026-04-24 14:50 | 25.05403 | -78.26482 | 32416 ft | 488 kts | 118° |
| 2026-04-24 14:50 | 25.04003 | -78.23082 | 32736 ft | 486 kts | 118° |
| 2026-04-24 14:51 | 25.02606 | -78.19692 | 33020 ft | 486 kts | 118° |
| 2026-04-24 14:51 | 25.01207 | -78.16305 | 33275 ft | 485 kts | 118° |
| 2026-04-24 14:51 | 24.99809 | -78.12921 | 33540 ft | 485 kts | 118° |
| 2026-04-24 14:51 | 24.98410 | -78.09538 | 33815 ft | 484 kts | 118° |
| 2026-04-24 14:52 | 24.97015 | -78.06168 | 34083 ft | 483 kts | 118° |
| 2026-04-24 14:52 | 24.95637 | -78.02843 | 34304 ft | 483 kts | 118° |
| 2026-04-24 14:52 | 24.94226 | -77.99439 | 34529 ft | 482 kts | 118° |
| 2026-04-24 14:52 | 24.92851 | -77.96126 | 34739 ft | 481 kts | 119° |
| 2026-04-24 14:53 | 24.91453 | -77.92765 | 34944 ft | 482 kts | 119° |
| 2026-04-24 14:53 | 24.90060 | -77.89414 | 35156 ft | 481 kts | 119° |
| 2026-04-24 14:53 | 24.88666 | -77.86060 | 35361 ft | 481 kts | 119° |
| 2026-04-24 14:53 | 24.87275 | -77.82715 | 35546 ft | 480 kts | 119° |
| 2026-04-24 14:54 | 24.85885 | -77.79375 | 35742 ft | 480 kts | 119° |
| 2026-04-24 14:54 | 24.84492 | -77.76034 | 35953 ft | 479 kts | 120° |
| 2026-04-24 14:54 | 24.83102 | -77.72702 | 36169 ft | 478 kts | 120° |
| 2026-04-24 14:54 | 24.81714 | -77.69379 | 36325 ft | 478 kts | 120° |
| 2026-04-24 14:55 | 24.80795 | -77.67178 | 36461 ft | 477 kts | 120° |
| 2026-04-24 14:55 | 24.78948 | -77.62756 | 36781 ft | 474 kts | 120° |
| 2026-04-24 14:55 | 24.77623 | -77.59587 | 36929 ft | 474 kts | 120° |
| 2026-04-24 14:56 | 24.74855 | -77.52987 | 37047 ft | 476 kts | 121° |
| 2026-04-24 14:56 | 24.71923 | -77.46438 | 37060 ft | 479 kts | 123° |
| 2026-04-24 14:57 | 24.68890 | -77.39898 | 37047 ft | 481 kts | 123° |
| 2026-04-24 14:57 | 24.65852 | -77.33327 | 37054 ft | 482 kts | 123° |
| 2026-04-24 14:58 | 24.62829 | -77.26746 | 37034 ft | 480 kts | 123° |
| 2026-04-24 14:58 | 24.59865 | -77.20262 | 37023 ft | 472 kts | 123° |
| 2026-04-24 14:59 | 24.56936 | -77.13883 | 37033 ft | 470 kts | 123° |
| 2026-04-24 14:59 | 24.53985 | -77.07472 | 37054 ft | 470 kts | 123° |
| 2026-04-24 15:00 | 24.51032 | -77.01062 | 37048 ft | 471 kts | 123° |
| 2026-04-24 15:00 | 24.48073 | -76.94644 | 37058 ft | 471 kts | 123° |
| 2026-04-24 15:01 | 24.45104 | -76.88215 | 37059 ft | 473 kts | 123° |
| 2026-04-24 15:01 | 24.42119 | -76.81763 | 37029 ft | 474 kts | 124° |
| 2026-04-24 15:02 | 24.39124 | -76.75297 | 37040 ft | 476 kts | 124° |
| 2026-04-24 15:02 | 24.36120 | -76.68817 | 37051 ft | 477 kts | 124° |
| 2026-04-24 15:03 | 24.33612 | -76.63417 | 37050 ft | 478 kts | 124° |
| 2026-04-24 15:03 | 24.30078 | -76.55813 | 37050 ft | 479 kts | 124° |
| 2026-04-24 15:04 | 24.27045 | -76.49297 | 37031 ft | 480 kts | 124° |
| 2026-04-24 15:04 | 24.24027 | -76.42827 | 37044 ft | 480 kts | 124° |
| 2026-04-24 15:05 | 24.20993 | -76.36325 | 37047 ft | 478 kts | 124° |
| 2026-04-24 15:05 | 24.17964 | -76.29841 | 37047 ft | 478 kts | 124° |
| 2026-04-24 15:06 | 24.14936 | -76.23375 | 37046 ft | 477 kts | 124° |
| 2026-04-24 15:06 | 24.11913 | -76.16928 | 37044 ft | 475 kts | 124° |
| 2026-04-24 15:07 | 24.08894 | -76.10497 | 37036 ft | 474 kts | 124° |
| 2026-04-24 15:07 | 24.05880 | -76.04085 | 37045 ft | 473 kts | 125° |
| 2026-04-24 15:08 | 24.02931 | -75.97820 | 37048 ft | 473 kts | 125° |
| 2026-04-24 15:08 | 23.99916 | -75.91428 | 37052 ft | 473 kts | 125° |
| 2026-04-24 15:09 | 23.96901 | -75.85040 | 37050 ft | 473 kts | 125° |
| 2026-04-24 15:09 | 23.93883 | -75.78656 | 37049 ft | 473 kts | 125° |
| 2026-04-24 15:10 | 23.91371 | -75.73348 | 37040 ft | 473 kts | 125° |
| 2026-04-24 15:10 | 23.88344 | -75.66959 | 37056 ft | 474 kts | 125° |
| 2026-04-24 15:11 | 23.85303 | -75.60557 | 37053 ft | 475 kts | 125° |
| 2026-04-24 15:11 | 23.82255 | -75.54141 | 37052 ft | 476 kts | 125° |
| 2026-04-24 15:12 | 23.79195 | -75.47710 | 37043 ft | 478 kts | 125° |
| 2026-04-24 15:12 | 23.74590 | -75.38042 | 37033 ft | 479 kts | 125° |
| 2026-04-24 15:13 | 23.71512 | -75.31590 | 37044 ft | 479 kts | 125° |
| 2026-04-24 15:13 | 23.68427 | -75.25139 | 37042 ft | 480 kts | 125° |
| 2026-04-24 15:14 | 23.65338 | -75.18682 | 37030 ft | 480 kts | 125° |
| 2026-04-24 15:14 | 23.62246 | -75.12231 | 37038 ft | 480 kts | 125° |
| 2026-04-24 15:15 | 23.59155 | -75.05785 | 37034 ft | 480 kts | 125° |
| 2026-04-24 15:15 | 23.56060 | -74.99343 | 37036 ft | 479 kts | 125° |
| 2026-04-24 15:16 | 23.52964 | -74.92910 | 37046 ft | 479 kts | 126° |
| 2026-04-24 15:16 | 23.49861 | -74.86471 | 37047 ft | 480 kts | 126° |
| 2026-04-24 15:17 | 23.46753 | -74.80034 | 37047 ft | 481 kts | 126° |
| 2026-04-24 15:17 | 23.43640 | -74.73588 | 37045 ft | 481 kts | 126° |
| 2026-04-24 15:18 | 23.40520 | -74.67141 | 37042 ft | 481 kts | 126° |
| 2026-04-24 15:18 | 23.37400 | -74.60695 | 37044 ft | 481 kts | 126° |
| 2026-04-24 15:19 | 23.34275 | -74.54251 | 37043 ft | 482 kts | 126° |
| 2026-04-24 15:19 | 23.31147 | -74.47807 | 37040 ft | 481 kts | 126° |
| 2026-04-24 15:20 | 23.28040 | -74.41414 | 37038 ft | 481 kts | 126° |
| 2026-04-24 15:20 | 23.24912 | -74.34989 | 37015 ft | 481 kts | 126° |
| 2026-04-24 15:21 | 23.21783 | -74.28571 | 37036 ft | 481 kts | 126° |
| 2026-04-24 15:21 | 23.18648 | -74.22152 | 37044 ft | 481 kts | 126° |
| 2026-04-24 15:22 | 23.15504 | -74.15727 | 37046 ft | 482 kts | 126° |
| 2026-04-24 15:23 | 23.10776 | -74.06067 | 37037 ft | 483 kts | 126° |
| 2026-04-24 15:23 | 23.06034 | -73.96398 | 37027 ft | 484 kts | 126° |
| 2026-04-24 15:25 | 22.98645 | -73.81372 | 37037 ft | 484 kts | 126° |
| 2026-04-24 15:26 | 22.90154 | -73.64162 | 37023 ft | 485 kts | 126° |
| 2026-04-24 15:27 | 22.80588 | -73.44841 | 37040 ft | 485 kts | 127° |
| 2026-04-24 15:29 | 22.70971 | -73.25499 | 37029 ft | 486 kts | 127° |
| 2026-04-24 15:31 | 22.59706 | -73.02927 | 37038 ft | 489 kts | 127° |
| 2026-04-24 15:33 | 22.46737 | -72.77061 | 37028 ft | 489 kts | 127° |
| 2026-04-24 15:34 | 22.38603 | -72.60917 | 37028 ft | 490 kts | 127° |
| 2026-04-24 15:35 | 22.30453 | -72.44775 | 37024 ft | 490 kts | 127° |
| 2026-04-24 15:36 | 22.27185 | -72.38322 | 37033 ft | 490 kts | 127° |
| 2026-04-24 15:36 | 22.22276 | -72.28639 | 37033 ft | 490 kts | 127° |
| 2026-04-24 15:37 | 22.19000 | -72.22189 | 37025 ft | 490 kts | 127° |
| 2026-04-24 15:37 | 22.15720 | -72.15738 | 37027 ft | 490 kts | 127° |
| 2026-04-24 15:38 | 22.12440 | -72.09295 | 37021 ft | 490 kts | 127° |
| 2026-04-24 15:38 | 22.09159 | -72.02856 | 37033 ft | 490 kts | 127° |
| 2026-04-24 15:39 | 22.05904 | -71.96480 | 37032 ft | 488 kts | 127° |
| 2026-04-24 15:39 | 22.02629 | -71.90069 | 37010 ft | 488 kts | 127° |
| 2026-04-24 15:40 | 21.99357 | -71.83673 | 37028 ft | 487 kts | 127° |
| 2026-04-24 15:40 | 21.96091 | -71.77295 | 37029 ft | 486 kts | 127° |
| 2026-04-24 15:41 | 21.92826 | -71.70929 | 37024 ft | 485 kts | 127° |
| 2026-04-24 15:41 | 21.89566 | -71.64581 | 37029 ft | 484 kts | 127° |
| 2026-04-24 15:42 | 21.86303 | -71.58237 | 37029 ft | 484 kts | 127° |
| 2026-04-24 15:42 | 21.83040 | -71.51899 | 37014 ft | 484 kts | 127° |
| 2026-04-24 15:43 | 21.79775 | -71.45562 | 37029 ft | 484 kts | 127° |
| 2026-04-24 15:43 | 21.76507 | -71.39225 | 37023 ft | 485 kts | 127° |
| 2026-04-24 15:44 | 21.73249 | -71.32919 | 37032 ft | 485 kts | 127° |
| 2026-04-24 15:44 | 21.69945 | -71.26529 | 37027 ft | 486 kts | 127° |
| 2026-04-24 15:45 | 21.66654 | -71.20169 | 37022 ft | 487 kts | 127° |
| 2026-04-24 15:45 | 21.63360 | -71.13814 | 37018 ft | 487 kts | 127° |
| 2026-04-24 15:46 | 21.60060 | -71.07454 | 37023 ft | 487 kts | 127° |
| 2026-04-24 15:46 | 21.56523 | -71.01308 | 37011 ft | 475 kts | 139° |
| 2026-04-24 15:47 | 21.52211 | -70.95982 | 37023 ft | 472 kts | 141° |
| 2026-04-24 15:47 | 21.47852 | -70.90715 | 37025 ft | 472 kts | 140° |
| 2026-04-24 15:48 | 21.43513 | -70.85414 | 37008 ft | 473 kts | 140° |
| 2026-04-24 15:48 | 21.39198 | -70.80093 | 37017 ft | 473 kts | 140° |
| 2026-04-24 15:49 | 21.34893 | -70.74771 | 37021 ft | 472 kts | 140° |
| 2026-04-24 15:49 | 21.30608 | -70.69481 | 36983 ft | 472 kts | 140° |
| 2026-04-24 15:50 | 21.26275 | -70.64139 | 37011 ft | 471 kts | 140° |
| 2026-04-24 15:50 | 21.21972 | -70.58842 | 37015 ft | 471 kts | 140° |
| 2026-04-24 15:51 | 21.17700 | -70.53585 | 37008 ft | 471 kts | 140° |
| 2026-04-24 15:51 | 21.13399 | -70.48300 | 37027 ft | 470 kts | 140° |
| 2026-04-24 15:52 | 21.09093 | -70.43014 | 37016 ft | 471 kts | 140° |
| 2026-04-24 15:52 | 21.04784 | -70.37731 | 37018 ft | 471 kts | 140° |
| 2026-04-24 15:53 | 21.00473 | -70.32449 | 37016 ft | 471 kts | 140° |
| 2026-04-24 15:53 | 20.96157 | -70.27166 | 37025 ft | 471 kts | 140° |
| 2026-04-24 15:54 | 20.91841 | -70.21888 | 37011 ft | 471 kts | 140° |
| 2026-04-24 15:54 | 20.88256 | -70.17506 | 37005 ft | 471 kts | 140° |
| 2026-04-24 15:55 | 20.83945 | -70.12243 | 37014 ft | 471 kts | 140° |
| 2026-04-24 15:55 | 20.79630 | -70.06979 | 37013 ft | 471 kts | 140° |
| 2026-04-24 15:56 | 20.75314 | -70.01721 | 37016 ft | 471 kts | 140° |
| 2026-04-24 15:56 | 20.70990 | -69.96458 | 37011 ft | 471 kts | 140° |
| 2026-04-24 15:57 | 20.66666 | -69.91199 | 37014 ft | 471 kts | 140° |
| 2026-04-24 15:57 | 20.62334 | -69.85935 | 37010 ft | 472 kts | 140° |
| 2026-04-24 15:58 | 20.58000 | -69.80673 | 37014 ft | 472 kts | 140° |
| 2026-04-24 15:58 | 20.53668 | -69.75419 | 37004 ft | 471 kts | 140° |
| 2026-04-24 15:59 | 20.49332 | -69.70169 | 37009 ft | 471 kts | 140° |
| 2026-04-24 15:59 | 20.44999 | -69.64925 | 37013 ft | 471 kts | 140° |
| 2026-04-24 16:00 | 20.40669 | -69.59684 | 37016 ft | 471 kts | 140° |
| 2026-04-24 16:00 | 20.36340 | -69.54451 | 37018 ft | 470 kts | 140° |
| 2026-04-24 16:01 | 20.32014 | -69.49230 | 37008 ft | 470 kts | 140° |
| 2026-04-24 16:01 | 20.27713 | -69.44044 | 37012 ft | 470 kts | 140° |
| 2026-04-24 16:02 | 20.23388 | -69.38829 | 37015 ft | 470 kts | 140° |
| 2026-04-24 16:02 | 20.19062 | -69.33615 | 37013 ft | 470 kts | 140° |
| 2026-04-24 16:03 | 20.14726 | -69.28402 | 37014 ft | 470 kts | 141° |
| 2026-04-24 16:03 | 20.10383 | -69.23188 | 37012 ft | 471 kts | 140° |
| 2026-04-24 16:04 | 20.06031 | -69.17962 | 37015 ft | 472 kts | 141° |
| 2026-04-24 16:04 | 20.01670 | -69.12731 | 37011 ft | 473 kts | 141° |
| 2026-04-24 16:05 | 19.95124 | -69.04885 | 37010 ft | 474 kts | 141° |
| 2026-04-24 16:06 | 19.88556 | -68.97023 | 37011 ft | 474 kts | 141° |
| 2026-04-24 16:07 | 19.82123 | -68.88993 | 36988 ft | 477 kts | 137° |
| 2026-04-24 16:07 | 19.75918 | -68.80753 | 37001 ft | 475 kts | 137° |
| 2026-04-24 16:08 | 19.69688 | -68.72580 | 37013 ft | 474 kts | 137° |
| 2026-04-24 16:09 | 19.63434 | -68.64440 | 37011 ft | 475 kts | 137° |
| 2026-04-24 16:09 | 19.59233 | -68.59042 | 36996 ft | 471 kts | 139° |
| 2026-04-24 16:11 | 19.48861 | -68.45461 | 37008 ft | 474 kts | 138° |
| 2026-04-24 16:11 | 19.44725 | -68.39994 | 37010 ft | 473 kts | 138° |
| 2026-04-24 16:12 | 19.38451 | -68.31984 | 37009 ft | 470 kts | 138° |
| 2026-04-24 16:13 | 19.32259 | -68.23989 | 36995 ft | 470 kts | 138° |
| 2026-04-24 16:14 | 19.23939 | -68.13279 | 37000 ft | 472 kts | 137° |
| 2026-04-24 16:14 | 19.17710 | -68.05205 | 36999 ft | 473 kts | 137° |
| 2026-04-24 16:15 | 19.11459 | -67.97138 | 37013 ft | 473 kts | 137° |
| 2026-04-24 16:16 | 19.05189 | -67.89070 | 37010 ft | 474 kts | 137° |
| 2026-04-24 16:17 | 18.94719 | -67.75615 | 37011 ft | 474 kts | 137° |
| 2026-04-24 16:18 | 18.86344 | -67.64889 | 37002 ft | 472 kts | 137° |
| 2026-04-24 16:19 | 18.80093 | -67.56878 | 37005 ft | 471 kts | 137° |
| 2026-04-24 16:20 | 18.73849 | -67.48893 | 37012 ft | 471 kts | 137° |
| 2026-04-24 16:20 | 18.67620 | -67.40946 | 37009 ft | 470 kts | 137° |
| 2026-04-24 16:21 | 18.61383 | -67.32992 | 37011 ft | 469 kts | 137° |
| 2026-04-24 16:22 | 18.57224 | -67.27697 | 37027 ft | 469 kts | 137° |
| 2026-04-24 16:22 | 18.50978 | -67.19738 | 37029 ft | 471 kts | 135° |
| 2026-04-24 16:23 | 18.47640 | -67.13697 | 37027 ft | 488 kts | 116° |
| 2026-04-24 16:24 | 18.44378 | -67.03495 | 37029 ft | 491 kts | 114° |
| 2026-04-24 16:24 | 18.42269 | -66.96800 | 37015 ft | 491 kts | 114° |
| 2026-04-24 16:25 | 18.40072 | -66.89989 | 36984 ft | 491 kts | 115° |
| 2026-04-24 16:25 | 18.38951 | -66.86564 | 36488 ft | 498 kts | 114° |
| 2026-04-24 16:25 | 18.37826 | -66.83127 | 35998 ft | 496 kts | 115° |
| 2026-04-24 16:26 | 18.35577 | -66.76262 | 34834 ft | 497 kts | 114° |
| 2026-04-24 16:26 | 18.34450 | -66.72823 | 34212 ft | 498 kts | 114° |
| 2026-04-24 16:26 | 18.32177 | -66.65898 | 32863 ft | 502 kts | 114° |
| 2026-04-24 16:27 | 18.31039 | -66.62429 | 32204 ft | 502 kts | 113° |
| 2026-04-24 16:27 | 18.29896 | -66.58949 | 31547 ft | 504 kts | 113° |
| 2026-04-24 16:27 | 18.28769 | -66.55516 | 31066 ft | 501 kts | 112° |
| 2026-04-24 16:27 | 18.27620 | -66.52015 | 30532 ft | 499 kts | 112° |
| 2026-04-24 16:28 | 18.26506 | -66.48623 | 30068 ft | 495 kts | 112° |
| 2026-04-24 16:28 | 18.25369 | -66.45167 | 29515 ft | 491 kts | 112° |
| 2026-04-24 16:28 | 18.23168 | -66.38490 | 28494 ft | 482 kts | 112° |
| 2026-04-24 16:29 | 18.22074 | -66.35176 | 28013 ft | 478 kts | 112° |
| 2026-04-24 16:29 | 18.20988 | -66.31887 | 27529 ft | 473 kts | 112° |
| 2026-04-24 16:29 | 18.18850 | -66.25414 | 26604 ft | 465 kts | 112° |
| 2026-04-24 16:30 | 18.16737 | -66.19028 | 25637 ft | 459 kts | 112° |
| 2026-04-24 16:30 | 18.15690 | -66.15867 | 25167 ft | 456 kts | 112° |
| 2026-04-24 16:30 | 18.14649 | -66.12727 | 24678 ft | 454 kts | 112° |
| 2026-04-24 16:31 | 18.13613 | -66.09601 | 24210 ft | 451 kts | 112° |
| 2026-04-24 16:31 | 18.12582 | -66.06496 | 23742 ft | 448 kts | 112° |
| 2026-04-24 16:31 | 18.11558 | -66.03418 | 23212 ft | 445 kts | 112° |
| 2026-04-24 16:31 | 18.10541 | -66.00359 | 22704 ft | 441 kts | 112° |
| 2026-04-24 16:32 | 18.09876 | -65.98358 | 22409 ft | 437 kts | 112° |
| 2026-04-24 16:32 | 18.08546 | -65.94356 | 21810 ft | 432 kts | 112° |
| 2026-04-24 16:32 | 18.07504 | -65.91414 | 21360 ft | 426 kts | 116° |
| 2026-04-24 16:32 | 18.06287 | -65.88602 | 20690 ft | 419 kts | 118° |
| 2026-04-24 16:33 | 18.05008 | -65.85881 | 20087 ft | 412 kts | 119° |
| 2026-04-24 16:33 | 18.03725 | -65.83213 | 19490 ft | 406 kts | 119° |
| 2026-04-24 16:33 | 18.02466 | -65.80585 | 18898 ft | 400 kts | 118° |
| 2026-04-24 16:33 | 18.01235 | -65.77987 | 18319 ft | 395 kts | 118° |
| 2026-04-24 16:34 | 18.00030 | -65.75418 | 17655 ft | 389 kts | 118° |
| 2026-04-24 16:34 | 17.98848 | -65.72883 | 17006 ft | 384 kts | 118° |
| 2026-04-24 16:34 | 17.97686 | -65.70379 | 16363 ft | 379 kts | 117° |
| 2026-04-24 16:34 | 17.96539 | -65.67902 | 15760 ft | 374 kts | 117° |
| 2026-04-24 16:35 | 17.95411 | -65.65466 | 15200 ft | 368 kts | 117° |
| 2026-04-24 16:35 | 17.94303 | -65.63070 | 14687 ft | 361 kts | 117° |
| 2026-04-24 16:35 | 17.93217 | -65.60724 | 14183 ft | 355 kts | 117° |
| 2026-04-24 16:35 | 17.92148 | -65.58413 | 13672 ft | 349 kts | 117° |
| 2026-04-24 16:36 | 17.91095 | -65.56139 | 13117 ft | 344 kts | 117° |
| 2026-04-24 16:36 | 17.90057 | -65.53898 | 12562 ft | 339 kts | 117° |
| 2026-04-24 16:36 | 17.89035 | -65.51692 | 12047 ft | 333 kts | 117° |
| 2026-04-24 16:36 | 17.88042 | -65.49551 | 11569 ft | 328 kts | 117° |
| 2026-04-24 16:37 | 17.87054 | -65.47422 | 11194 ft | 319 kts | 117° |
| 2026-04-24 16:37 | 17.86110 | -65.45386 | 11085 ft | 302 kts | 117° |
| 2026-04-24 16:37 | 17.85492 | -65.44054 | 10857 ft | 298 kts | 117° |
| 2026-04-24 16:37 | 17.84297 | -65.41481 | 10259 ft | 295 kts | 117° |
| 2026-04-24 16:38 | 17.83400 | -65.39550 | 9821 ft | 293 kts | 117° |
| 2026-04-24 16:38 | 17.82512 | -65.37637 | 9344 ft | 290 kts | 117° |
| 2026-04-24 16:38 | 17.81629 | -65.35738 | 8871 ft | 288 kts | 117° |
| 2026-04-24 16:38 | 17.80753 | -65.33855 | 8402 ft | 287 kts | 117° |
| 2026-04-24 16:39 | 17.79881 | -65.31980 | 7938 ft | 284 kts | 117° |
| 2026-04-24 16:39 | 17.79023 | -65.30134 | 7564 ft | 279 kts | 117° |
| 2026-04-24 16:39 | 17.78176 | -65.28311 | 7130 ft | 276 kts | 117° |
| 2026-04-24 16:39 | 17.77338 | -65.26511 | 6697 ft | 274 kts | 117° |
| 2026-04-24 16:40 | 17.76504 | -65.24721 | 6242 ft | 272 kts | 117° |
| 2026-04-24 16:40 | 17.75674 | -65.22942 | 5815 ft | 269 kts | 117° |
| 2026-04-24 16:40 | 17.74855 | -65.21183 | 5358 ft | 267 kts | 117° |
| 2026-04-24 16:40 | 17.74037 | -65.19427 | 4903 ft | 268 kts | 117° |
| 2026-04-24 16:41 | 17.73231 | -65.17696 | 4561 ft | 261 kts | 117° |
| 2026-04-24 16:41 | 17.72433 | -65.15979 | 4073 ft | 263 kts | 117° |
| 2026-04-24 16:41 | 17.71643 | -65.14285 | 3765 ft | 255 kts | 117° |
| 2026-04-24 16:41 | 17.70879 | -65.12650 | 3214 ft | 257 kts | 116° |
| 2026-04-24 16:42 | 17.70094 | -65.10963 | 2817 ft | 255 kts | 116° |
| 2026-04-24 16:42 | 17.69319 | -65.09303 | 2404 ft | 255 kts | 116° |
| 2026-04-24 16:42 | 17.68531 | -65.07618 | 2112 ft | 256 kts | 116° |
| 2026-04-24 16:42 | 17.67801 | -65.05945 | 2001 ft | 248 kts | 106° |
| 2026-04-24 16:43 | 17.67746 | -65.04205 | 1998 ft | 234 kts | 82° |
| 2026-04-24 16:43 | 17.67899 | -65.03106 | 1979 ft | 225 kts | 84° |
| 2026-04-24 16:43 | 17.68047 | -65.01532 | 1982 ft | 208 kts | 85° |
| 2026-04-24 16:43 | 17.68179 | -65.00082 | 1991 ft | 191 kts | 84° |
| 2026-04-24 16:44 | 17.68308 | -64.98744 | 1987 ft | 178 kts | 84° |
| 2026-04-24 16:44 | 17.68478 | -64.97039 | 2006 ft | 181 kts | 85° |
| 2026-04-24 16:44 | 17.68608 | -64.95718 | 1989 ft | 183 kts | 85° |
| 2026-04-24 16:44 | 17.68696 | -64.94825 | 2006 ft | 183 kts | 84° |
| 2026-04-24 16:45 | 17.68868 | -64.93107 | 1986 ft | 171 kts | 85° |
| 2026-04-24 16:45 | 17.68950 | -64.92277 | 1980 ft | 168 kts | 85° |
| 2026-04-24 16:45 | 17.69074 | -64.91035 | 1842 ft | 174 kts | 86° |
| 2026-04-24 16:45 | 17.69199 | -64.89774 | 1628 ft | 174 kts | 85° |
| 2026-04-24 16:46 | 17.69321 | -64.88557 | 1437 ft | 161 kts | 85° |
| 2026-04-24 16:46 | 17.69433 | -64.87434 | 1214 ft | 150 kts | 86° |
| 2026-04-24 16:46 | 17.69543 | -64.86333 | 1008 ft | 153 kts | 86° |
| 2026-04-24 16:46 | 17.69651 | -64.85242 | 820 ft | 149 kts | 85° |
| 2026-04-24 16:47 | 17.69761 | -64.84138 | 628 ft | 154 kts | 85° |
| 2026-04-24 16:47 | 17.69872 | -64.83028 | 413 ft | 154 kts | 85° |
| 2026-04-24 16:47 | 17.69984 | -64.81906 | 182 ft | 154 kts | 85° |
| 2026-04-24 16:47 | 17.70094 | -64.80830 | 88 ft | 139 kts | 84° |
| 2026-04-24 16:48 | 17.70178 | -64.79975 | 83 ft | 96 kts | 84° |
| 2026-04-24 16:48 | 17.70228 | -64.79492 | 86 ft | 31 kts | 84° |
| 2026-04-24 16:48 | 17.70222 | -64.79375 | 86 ft | 13 kts | 120° |
| 2026-04-24 16:48 | 17.70145 | -64.79335 | 86 ft | 13 kts | 179° |
| 2026-04-24 16:49 | 17.70092 | -64.79394 | 84 ft | 13 kts | 263° |
| 2026-04-24 16:49 | 17.70084 | -64.79486 | 84 ft | 12 kts | 264° |
| 2026-04-24 16:49 | 17.70021 | -64.79523 | 84 ft | 12 kts | 174° |
| 2026-04-24 16:49 | 17.69964 | -64.79540 | 87 ft | 8 kts | 259° |
| 2026-04-24 16:50 | 17.69962 | -64.79567 | 87 ft | 3 kts | 265° |
| 2026-04-24 16:50 | 17.69961 | -64.79570 | 84 ft | 0 kts | 264° |